Terminal Aerodrome Forecast
Issued by NWS North Platte, NE

Home | Current Version | Previous Version | Text Only | Print | Product List | Glossary On
Versions: 1 2 3 4 5 6 7 8 9 10 11 12 13 14 15
664
FTUS43 KLBF 152320
TAFLBF
TAF
KLBF 152320Z 1600/1624 24006KT P6SM BKN250
     FM160700 30004KT P6SM BKN250
     FM161400 36004KT P6SM BKN250
     FM161700 02009KT P6SM BKN200=

USA.gov is the U.S. government's official web portal to all federal, state and local government web resources and services.